Aérodrome :
LOGIN :

S'inscrire | Disclaimer

   EN    FR    IT 

 










Légende :    VFR   VFR Marginal   IFR   IFR Intensif   IFR Très Intensif
Visi : 
Plafond : 
>= 8 km
>= 3000ft
5 à 8 km
1000 à 3000 ft
1500m à 5 km
500 à 1000 ft
800 à 1500m
200 à 500 ft
< 800m
< 200 ft
Symboles :   Orages  Brouillard  Fortes neiges  Fortes précipitations  Vent > 20 kt
SIGMETs :   Divers  Orages  Givrage  Turbulence  Onde Orograph.  Cendres Volcan.






- Altitude de l'aérodrome : 256 ft
- Code IATA : CFR


LFRK - Caen

DERNIER METAR :
  • 280700Z AUTO 02009KT 360V060 CAVOK 14/08 Q1025 NOSIG

METARs EXPIRÉS :
  • 280630Z AUTO 02008KT CAVOK 14/09 Q1025 NOSIG
  • 280600Z AUTO 02007KT 350V050 CAVOK 13/09 Q1025 NOSIG
  • 280530Z AUTO 02004KT 330V050 CAVOK 13/08 Q1025 NOSIG
  • 280500Z AUTO VRB03KT CAVOK 11/08 Q1025
  • 280430Z AUTO 02004KT 350V060 CAVOK 11/08 Q1025

TAF TAF LFRK
Valide du 28 à 06h jusqu'au 28 à 15h UTC


280500Z 2806/2815 02008KT CAVOK
Météo : +33 2 31 26 68 11



MET'MAP, la Météo Aéronautique d'un coup d'oeil ! - Copyright ORBIFLY Décembre 2007 - Disclaimer

ORBIFLY MET'MAP TEAM :

Programmation & Développement : Alexandra Zaïnal
Sur une idée originale de : Baudouin d'Aumeries
Soutien technique & logistique : Manuel Goepfert
Assistance : Marc-Olivier Méhu

Contact : metmap@orbifly.com




SOURCES & CREDITS :

   NOAA